Time;durP1;ratioP1;P1;durP2;ratioP2;P2;SDS_P1;SDS_P2;PMS_P1;PMS_P2;Temp;Humidity;BMP_temperature;BMP_pressure;BME280_temperature;BME280_humidity;BME280_pressure;Samples;Min_cycle;Max_cycle;Signal;HPM_P1;HPM_P2
2021/07/22 00:00:57;;;;;;;10.87;5.20;;;;;;;-145.18;100.00;60484.78;5074983;28;20090;-69
2021/07/22 00:03:23;;;;;;;13.23;5.10;;;;;;;-145.18;100.00;60484.78;5073762;28;20032;-69
2021/07/22 00:05:48;;;;;;;11.07;5.17;;;;;;;-145.18;100.00;60484.78;5067031;28;20020;-69
2021/07/22 00:08:14;;;;;;;14.23;5.90;;;;;;;-145.18;100.00;60484.78;5076847;28;20102;-69
2021/07/22 00:10:39;;;;;;;11.67;5.77;;;;;;;-145.18;100.00;60484.78;5062416;28;20032;-69
2021/07/22 00:13:06;;;;;;;14.63;5.90;;;;;;;-145.18;100.00;60484.78;5069049;28;20037;-69
2021/07/22 00:15:33;;;;;;;14.20;5.27;;;;;;;-145.18;100.00;60484.78;5080318;28;20063;-69
2021/07/22 00:17:59;;;;;;;15.47;5.93;;;;;;;-145.18;100.00;60484.78;5087681;28;20028;-69
2021/07/22 00:20:25;;;;;;;13.87;5.83;;;;;;;-145.18;100.00;60484.78;5082475;28;20028;-69
2021/07/22 00:22:51;;;;;;;15.43;6.27;;;;;;;-145.18;100.00;60484.78;5086740;28;20052;-69
2021/07/22 00:25:16;;;;;;;12.23;5.53;;;;;;;-145.18;100.00;60484.78;5082129;28;20062;-69
2021/07/22 00:27:42;;;;;;;13.00;5.60;;;;;;;-145.18;100.00;60484.78;5085462;28;20039;-69
2021/07/22 00:30:08;;;;;;;14.07;5.80;;;;;;;-145.18;100.00;60484.78;5085844;28;20052;-69
2021/07/22 00:32:34;;;;;;;18.47;6.87;;;;;;;-145.18;100.00;60484.78;5085255;28;20053;-69
2021/07/22 00:35:00;;;;;;;16.67;6.60;;;;;;;-145.18;100.00;60484.78;5082200;28;20082;-69
2021/07/22 00:37:25;;;;;;;13.77;5.83;;;;;;;-145.18;100.00;60484.78;5082620;28;20419;-69
2021/07/22 00:39:51;;;;;;;15.80;5.83;;;;;;;-145.18;100.00;60484.78;5082327;28;20035;-69
2021/07/22 00:42:16;;;;;;;16.47;6.53;;;;;;;-145.18;100.00;60484.78;5082021;28;20056;-69
2021/07/22 00:44:42;;;;;;;15.57;6.10;;;;;;;-145.18;100.00;60484.78;5081507;28;20054;-69
2021/07/22 00:47:07;;;;;;;15.37;6.60;;;;;;;-145.18;100.00;60484.78;5081621;28;20043;-69
2021/07/22 00:49:33;;;;;;;18.40;7.40;;;;;;;-145.18;100.00;60484.78;5081625;28;20411;-69
2021/07/22 00:51:58;;;;;;;17.20;6.93;;;;;;;-145.18;100.00;60484.78;5088486;28;20031;-69
2021/07/22 00:54:24;;;;;;;16.87;6.50;;;;;;;-145.18;100.00;60484.78;5093144;28;20027;-69
2021/07/22 00:56:49;;;;;;;15.73;7.47;;;;;;;-145.18;100.00;60484.78;5087069;28;20059;-69
2021/07/22 00:59:15;;;;;;;17.00;7.13;;;;;;;-145.18;100.00;60484.78;5085934;28;20086;-69
2021/07/22 01:01:40;;;;;;;15.10;6.40;;;;;;;-145.18;100.00;60484.78;5086201;28;20028;-71
2021/07/22 01:04:06;;;;;;;16.27;7.03;;;;;;;-145.18;100.00;60484.78;5092417;28;20040;-71
2021/07/22 01:06:31;;;;;;;13.10;5.63;;;;;;;-145.18;100.00;60484.78;5084820;28;20400;-71
2021/07/22 01:08:57;;;;;;;16.27;7.00;;;;;;;-145.18;100.00;60484.78;5093391;28;20032;-71
2021/07/22 01:11:23;;;;;;;17.43;6.47;;;;;;;-145.18;100.00;60484.78;5085320;28;20135;-71
2021/07/22 01:13:49;;;;;;;15.73;6.23;;;;;;;-145.18;100.00;60484.78;5094094;28;20794;-71
2021/07/22 01:16:14;;;;;;;18.63;6.57;;;;;;;-145.18;100.00;60484.78;5084672;28;20024;-71
2021/07/22 01:18:40;;;;;;;17.63;6.83;;;;;;;-145.18;100.00;60484.78;5087823;28;20055;-71
2021/07/22 01:21:07;;;;;;;17.40;7.43;;;;;;;-145.18;100.00;60484.78;5088699;28;20081;-71
2021/07/22 01:23:33;;;;;;;15.70;6.53;;;;;;;-145.18;100.00;60484.78;5091542;28;20738;-71
2021/07/22 01:25:59;;;;;;;16.37;6.83;;;;;;;-145.18;100.00;60484.78;5085108;28;20031;-71
2021/07/22 01:28:24;;;;;;;16.33;6.90;;;;;;;-145.18;100.00;60484.78;5089885;28;20479;-71
2021/07/22 01:30:49;;;;;;;15.70;6.47;;;;;;;-145.18;100.00;60484.78;5084892;28;20038;-71
2021/07/22 01:33:15;;;;;;;21.40;7.63;;;;;;;-145.18;100.00;60484.78;5088183;28;20032;-71
2021/07/22 01:35:41;;;;;;;16.30;6.30;;;;;;;-145.18;100.00;60484.78;5085104;28;20661;-71
2021/07/22 01:38:07;;;;;;;19.80;7.70;;;;;;;-145.18;100.00;60484.78;5087338;28;20054;-71
2021/07/22 01:40:33;;;;;;;17.70;6.63;;;;;;;-145.18;100.00;60484.78;5084977;28;20027;-71
2021/07/22 01:42:58;;;;;;;18.97;6.83;;;;;;;-145.18;100.00;60484.78;5087231;28;20020;-71
2021/07/22 01:45:24;;;;;;;17.43;6.33;;;;;;;-145.18;100.00;60484.78;5085087;28;20069;-71
2021/07/22 01:47:49;;;;;;;15.60;6.10;;;;;;;-145.18;100.00;60484.78;5078124;28;20370;-71
2021/07/22 01:50:15;;;;;;;19.17;6.67;;;;;;;-145.18;100.00;60484.78;5079611;28;20099;-71
2021/07/22 01:52:40;;;;;;;14.00;6.50;;;;;;;-145.18;100.00;60484.78;5083320;28;20032;-71
2021/07/22 01:55:07;;;;;;;15.47;7.07;;;;;;;-145.18;100.00;60484.78;5083920;28;20047;-71
2021/07/22 01:57:32;;;;;;;18.50;6.80;;;;;;;-145.18;100.00;60484.78;5084558;28;20016;-71
2021/07/22 02:00:06;;;;;;;16.60;6.97;;;;;;;-145.18;100.00;60484.78;5083950;28;20592;-71
2021/07/22 02:02:32;;;;;;;15.17;6.70;;;;;;;-145.18;100.00;60484.78;5091625;28;20038;-71
2021/07/22 02:04:58;;;;;;;19.00;6.47;;;;;;;-145.18;100.00;60484.78;5085942;28;20023;-71
2021/07/22 02:07:24;;;;;;;16.80;6.90;;;;;;;-145.18;100.00;60484.78;5099918;28;20038;-71
2021/07/22 02:09:49;;;;;;;17.00;6.67;;;;;;;-145.18;100.00;60484.78;5085792;28;20024;-71
2021/07/22 02:12:15;;;;;;;16.33;6.80;;;;;;;-145.18;100.00;60484.78;5089629;28;20177;-71
2021/07/22 02:14:42;;;;;;;18.63;6.83;;;;;;;-145.18;100.00;60484.78;5087509;28;20043;-71
2021/07/22 02:17:08;;;;;;;15.53;6.27;;;;;;;-145.18;100.00;60484.78;5088446;28;20098;-71
2021/07/22 02:19:33;;;;;;;26.43;7.43;;;;;;;-145.18;100.00;60484.78;5086684;28;20031;-71
2021/07/22 02:21:59;;;;;;;17.30;6.93;;;;;;;-145.18;100.00;60484.78;5087234;28;20589;-71
2021/07/22 02:24:24;;;;;;;24.07;7.00;;;;;;;-145.18;100.00;60484.78;5086988;28;20028;-71
2021/07/22 02:26:50;;;;;;;17.00;6.60;;;;;;;-145.18;100.00;60484.78;5086374;28;20694;-71
2021/07/22 02:29:18;;;;;;;15.03;6.50;;;;;;;-145.18;100.00;60484.78;5087135;28;20039;-73
2021/07/22 02:31:43;;;;;;;17.47;6.10;;;;;;;-145.18;100.00;60484.78;5084485;28;20103;-71
2021/07/22 02:34:09;;;;;;;16.47;6.73;;;;;;;-145.18;100.00;60484.78;5086825;28;20127;-74
2021/07/22 02:36:34;;;;;;;16.97;6.67;;;;;;;-145.18;100.00;60484.78;5084128;28;20028;-73
2021/07/22 02:39:01;;;;;;;16.73;7.23;;;;;;;-145.18;100.00;60484.78;5086059;28;20024;-73
2021/07/22 02:41:29;;;;;;;16.93;7.37;;;;;;;-145.18;100.00;60484.78;5083426;28;20023;-72
2021/07/22 02:43:54;;;;;;;18.20;7.03;;;;;;;-145.18;100.00;60484.78;5085241;28;20020;-72
2021/07/22 02:46:20;;;;;;;15.17;6.23;;;;;;;-145.18;100.00;60484.78;5083305;28;20016;-71
2021/07/22 02:48:48;;;;;;;18.10;7.07;;;;;;;-145.18;100.00;60484.78;5084731;28;20020;-70
2021/07/22 02:51:14;;;;;;;14.70;6.23;;;;;;;-145.18;100.00;60484.78;5082789;28;20693;-70
2021/07/22 02:53:39;;;;;;;18.33;6.67;;;;;;;-145.18;100.00;60484.78;5097500;28;20052;-70
2021/07/22 02:56:05;;;;;;;17.70;6.30;;;;;;;-145.18;100.00;60484.78;5083380;28;20111;-70
2021/07/22 02:58:33;;;;;;;18.43;6.70;;;;;;;-145.18;100.00;60484.78;5086384;28;20046;-70
2021/07/22 03:00:59;;;;;;;19.40;6.93;;;;;;;-145.18;100.00;60484.78;5083235;28;20023;-70
2021/07/22 03:03:27;;;;;;;17.90;7.13;;;;;;;-145.18;100.00;60484.78;5092156;28;20431;-70
2021/07/22 03:05:53;;;;;;;21.87;7.20;;;;;;;-145.18;100.00;60484.78;5082829;28;20719;-70
2021/07/22 03:08:21;;;;;;;17.17;6.73;;;;;;;-145.18;100.00;60484.78;5090291;28;20016;-70
2021/07/22 03:10:47;;;;;;;16.17;6.57;;;;;;;-145.18;100.00;60484.78;5082784;28;20117;-70
2021/07/22 03:13:12;;;;;;;17.53;6.80;;;;;;;-145.18;100.00;60484.78;5089185;28;20074;-70
2021/07/22 03:15:37;;;;;;;17.63;6.70;;;;;;;-145.18;100.00;60484.78;5082786;28;20500;-70
2021/07/22 03:18:03;;;;;;;18.67;7.17;;;;;;;-145.18;100.00;60484.78;5088097;28;20035;-70
2021/07/22 03:20:28;;;;;;;13.80;6.17;;;;;;;-145.18;100.00;60484.78;5083210;28;20050;-70
2021/07/22 03:22:54;;;;;;;16.33;6.17;;;;;;;-145.18;100.00;60484.78;5086354;28;20330;-70
2021/07/22 03:25:20;;;;;;;18.43;6.57;;;;;;;-145.18;100.00;60484.78;5083107;28;20027;-70
2021/07/22 03:27:46;;;;;;;20.93;6.43;;;;;;;-145.18;100.00;60484.78;5085642;28;20070;-70
2021/07/22 03:30:12;;;;;;;16.33;6.77;;;;;;;-145.18;100.00;60484.78;5082840;28;20407;-70
2021/07/22 03:32:38;;;;;;;20.20;6.37;;;;;;;-145.18;100.00;60484.78;5084149;28;20098;-70
2021/07/22 03:35:05;;;;;;;14.67;6.47;;;;;;;-145.18;100.00;60484.78;5082658;28;20035;-70
2021/07/22 03:37:31;;;;;;;19.43;7.70;;;;;;;-145.18;100.00;60484.78;5083055;28;20028;-70
2021/07/22 03:39:56;;;;;;;16.17;6.80;;;;;;;-145.18;100.00;60484.78;5082591;28;20574;-70
2021/07/22 03:42:25;;;;;;;20.33;7.80;;;;;;;-145.18;100.00;60484.78;5088548;28;20035;-70
2021/07/22 03:44:51;;;;;;;18.13;7.07;;;;;;;-145.18;100.00;60484.78;5089412;28;20031;-70
2021/07/22 03:47:16;;;;;;;18.97;7.83;;;;;;;-145.18;100.00;60484.78;5087982;28;20031;-70
2021/07/22 03:49:42;;;;;;;18.63;6.97;;;;;;;-145.18;100.00;60484.78;5088797;28;20074;-70
2021/07/22 03:52:07;;;;;;;22.03;7.83;;;;;;;-145.18;100.00;60484.78;5086200;28;20568;-70
2021/07/22 03:54:33;;;;;;;17.87;7.47;;;;;;;-145.18;100.00;60484.78;5088879;28;20024;-70
2021/07/22 03:57:00;;;;;;;15.93;6.63;;;;;;;-145.18;100.00;60484.78;5083558;28;20439;-70
2021/07/22 03:59:26;;;;;;;20.57;7.47;;;;;;;-145.18;100.00;60484.78;5089013;28;20511;-70
2021/07/22 04:01:51;;;;;;;16.77;7.30;;;;;;;-145.18;100.00;60484.78;5083860;28;20111;-70
2021/07/22 04:04:16;;;;;;;17.43;7.23;;;;;;;-145.18;100.00;60484.78;5082771;28;20052;-70
2021/07/22 04:06:42;;;;;;;18.90;7.87;;;;;;;-145.18;100.00;60484.78;5082427;28;20358;-70
2021/07/22 04:09:07;;;;;;;16.57;7.27;;;;;;;-145.18;100.00;60484.78;5089496;28;20020;-70
2021/07/22 04:11:37;;;;;;;18.70;7.93;;;;;;;-145.18;100.00;60484.78;5082290;28;20453;-70
2021/07/22 04:14:03;;;;;;;19.67;7.33;;;;;;;-145.18;100.00;60484.78;5089021;28;20667;-71
2021/07/22 04:16:28;;;;;;;18.73;7.03;;;;;;;-145.18;100.00;60484.78;5081751;28;20434;-70
2021/07/22 04:18:54;;;;;;;23.70;7.17;;;;;;;-145.18;100.00;60484.78;5087191;28;20255;-71
2021/07/22 04:21:22;;;;;;;18.43;7.13;;;;;;;-145.18;100.00;60484.78;5081773;28;20036;-70
2021/07/22 04:23:48;;;;;;;20.67;6.80;;;;;;;-145.18;100.00;60484.78;5086533;28;20023;-70
2021/07/22 04:26:15;;;;;;;17.37;6.90;;;;;;;-145.18;100.00;60484.78;5084467;28;20028;-71
2021/07/22 04:28:44;;;;;;;16.67;6.97;;;;;;;-145.18;100.00;60484.78;5085961;28;20023;-70
2021/07/22 04:31:14;;;;;;;17.73;6.40;;;;;;;-145.18;100.00;60484.78;5085427;28;20124;-70
2021/07/22 04:33:40;;;;;;;22.60;7.60;;;;;;;-145.18;100.00;60484.78;5088413;28;20046;-70
2021/07/22 04:36:09;;;;;;;14.37;5.70;;;;;;;-145.18;100.00;60484.78;5085535;28;20031;-70
2021/07/22 04:38:37;;;;;;;18.70;7.03;;;;;;;-145.18;100.00;60484.78;5096065;28;20027;-70
2021/07/22 04:41:04;;;;;;;16.93;7.00;;;;;;;-145.18;100.00;60484.78;5084630;28;20282;-70
2021/07/22 04:43:29;;;;;;;21.30;6.83;;;;;;;-145.18;100.00;60484.78;5095219;28;20030;-70
2021/07/22 04:45:55;;;;;;;25.60;7.13;;;;;;;-145.18;100.00;60484.78;5085473;28;20028;-70
2021/07/22 04:48:23;;;;;;;18.80;6.87;;;;;;;-145.18;100.00;60484.78;5093811;28;20067;-70
2021/07/22 04:50:49;;;;;;;16.47;6.70;;;;;;;-145.18;100.00;60484.78;5085888;28;20492;-71
2021/07/22 04:53:14;;;;;;;19.07;7.07;;;;;;;-145.18;100.00;60484.78;5092983;28;20036;-71
2021/07/22 04:55:40;;;;;;;16.83;6.80;;;;;;;-145.18;100.00;60484.78;5085510;28;20027;-71
2021/07/22 04:58:05;;;;;;;16.23;7.13;;;;;;;-145.18;100.00;60484.78;5091534;28;20078;-71
2021/07/22 05:00:31;;;;;;;16.33;7.00;;;;;;;-145.18;100.00;60484.78;5085767;28;20039;-71
2021/07/22 05:02:58;;;;;;;17.67;7.23;;;;;;;-145.18;100.00;60484.78;5090550;28;20065;-71
2021/07/22 05:05:25;;;;;;;16.03;6.57;;;;;;;-145.18;100.00;60484.78;5078881;28;20038;-70
2021/07/22 05:07:51;;;;;;;19.37;6.83;;;;;;;-145.18;100.00;60484.78;5090253;28;20106;-70
2021/07/22 05:10:16;;;;;;;19.53;7.47;;;;;;;-145.18;100.00;60484.78;5086702;28;20560;-70
2021/07/22 05:12:44;;;;;;;17.73;6.90;;;;;;;-145.18;100.00;60484.78;5088531;28;20066;-70
2021/07/22 05:15:11;;;;;;;16.47;7.03;;;;;;;-145.18;100.00;60484.78;5085305;28;20072;-70
2021/07/22 05:17:37;;;;;;;15.20;6.40;;;;;;;-145.18;100.00;60484.78;5086666;28;20115;-70
2021/07/22 05:20:03;;;;;;;15.77;6.73;;;;;;;-145.18;100.00;60484.78;5085317;28;20132;-70
2021/07/22 05:22:29;;;;;;;20.30;7.73;;;;;;;-145.18;100.00;60484.78;5085515;28;20024;-70
2021/07/22 05:24:54;;;;;;;18.73;6.33;;;;;;;-145.18;100.00;60484.78;5085512;28;20069;-70
2021/07/22 05:27:20;;;;;;;14.37;6.83;;;;;;;-145.18;100.00;60484.78;5090893;28;20028;-70
2021/07/22 05:29:45;;;;;;;20.53;7.03;;;;;;;-145.18;100.00;60484.78;5092064;28;20023;-70
2021/07/22 05:32:13;;;;;;;18.07;7.43;;;;;;;-145.18;100.00;60484.78;5087528;28;20036;-70
2021/07/22 05:34:38;;;;;;;19.17;7.23;;;;;;;-145.18;100.00;60484.78;5071561;28;20024;-70
2021/07/22 05:37:05;;;;;;;15.80;6.63;;;;;;;-145.18;100.00;60484.78;5087772;28;20212;-70
2021/07/22 05:39:34;;;;;;;16.63;6.70;;;;;;;-145.18;100.00;60484.78;5084935;28;20106;-70
2021/07/22 05:42:00;;;;;;;17.57;6.90;;;;;;;-145.18;100.00;60484.78;5087114;28;20032;-70
2021/07/22 05:44:25;;;;;;;18.27;7.53;;;;;;;-145.18;100.00;60484.78;5084871;28;20038;-71
2021/07/22 05:46:51;;;;;;;17.80;6.77;;;;;;;-145.18;100.00;60484.78;5086118;28;20118;-71
2021/07/22 05:49:16;;;;;;;16.90;7.30;;;;;;;-145.18;100.00;60484.78;5084808;28;20036;-71
2021/07/22 05:51:42;;;;;;;19.10;7.17;;;;;;;-145.18;100.00;60484.78;5085120;28;20027;-71
2021/07/22 05:54:09;;;;;;;17.03;6.90;;;;;;;-145.18;100.00;60484.78;5097617;28;20380;-71
2021/07/22 05:56:35;;;;;;;17.27;6.73;;;;;;;-145.18;100.00;60484.78;5084493;28;20042;-70
2021/07/22 05:59:01;;;;;;;16.13;6.77;;;;;;;-145.18;100.00;60484.78;5096371;28;20101;-71
2021/07/22 06:01:26;;;;;;;15.00;6.70;;;;;;;-145.18;100.00;60484.78;5084212;28;20411;-71
2021/07/22 06:03:52;;;;;;;19.00;6.77;;;;;;;-145.18;100.00;60484.78;5088617;28;20107;-71
2021/07/22 06:06:17;;;;;;;19.73;7.20;;;;;;;-145.18;100.00;60484.78;5078100;28;20255;-71
2021/07/22 06:08:44;;;;;;;16.50;6.47;;;;;;;-145.18;100.00;60484.78;5094815;28;20030;-69
2021/07/22 06:11:12;;;;;;;17.60;7.17;;;;;;;-145.18;100.00;60484.78;5083877;28;20074;-70
2021/07/22 06:13:38;;;;;;;14.37;6.37;;;;;;;-145.18;100.00;60484.78;5093763;28;20028;-71
2021/07/22 06:16:07;;;;;;;16.07;5.93;;;;;;;-145.18;100.00;60484.78;5084270;28;20097;-71
2021/07/22 06:18:33;;;;;;;16.23;6.57;;;;;;;-145.18;100.00;60484.78;5092441;28;20059;-71
2021/07/22 06:20:58;;;;;;;16.37;6.80;;;;;;;-145.18;100.00;60484.78;5083812;28;20047;-70
2021/07/22 06:23:24;;;;;;;15.73;6.60;;;;;;;-145.18;100.00;60484.78;5091337;28;20175;-70
2021/07/22 06:25:55;;;;;;;14.27;6.63;;;;;;;-145.18;100.00;60484.78;5082881;28;20036;-70
2021/07/22 06:28:21;;;;;;;13.70;5.78;;;;;;;-145.18;100.00;60484.78;5090055;28;20585;-70
2021/07/22 06:30:46;;;;;;;14.00;6.03;;;;;;;-145.18;100.00;60484.78;5083611;28;20032;-70
2021/07/22 06:33:12;;;;;;;15.63;5.90;;;;;;;-145.18;100.00;60484.78;5086150;28;20032;-70
2021/07/22 06:35:37;;;;;;;15.53;6.20;;;;;;;-145.18;100.00;60484.78;5083829;28;20027;-70
2021/07/22 06:38:03;;;;;;;15.93;6.05;;;;;;;-145.18;100.00;60484.78;5087054;28;20040;-70
2021/07/22 06:40:28;;;;;;;14.77;5.85;;;;;;;-145.18;100.00;60484.78;5083673;28;20028;-70
2021/07/22 06:42:54;;;;;;;14.07;6.10;;;;;;;-145.18;100.00;60484.78;5086287;28;20645;-70
2021/07/22 06:45:19;;;;;;;18.45;6.65;;;;;;;-145.18;100.00;60484.78;5083379;28;20050;-70
2021/07/22 06:47:45;;;;;;;11.55;5.70;;;;;;;-145.18;100.00;60484.78;5084721;28;20055;-71
2021/07/22 06:50:14;;;;;;;15.88;6.25;;;;;;;-145.18;100.00;60484.78;5083293;28;20102;-70
2021/07/22 06:52:39;;;;;;;14.45;6.57;;;;;;;-145.18;100.00;60484.78;5091920;28;20031;-70
2021/07/22 06:55:06;;;;;;;11.90;5.88;;;;;;;-145.18;100.00;60484.78;5088481;28;20032;-71
2021/07/22 06:57:32;;;;;;;13.75;5.78;;;;;;;-145.18;100.00;60484.78;5090677;28;20387;-71
2021/07/22 06:59:57;;;;;;;10.45;5.15;;;;;;;-145.18;100.00;60484.78;5088408;28;20022;-70
2021/07/22 07:02:23;;;;;;;13.00;5.35;;;;;;;-145.18;100.00;60484.78;5089195;28;20088;-70
2021/07/22 07:04:48;;;;;;;13.13;5.15;;;;;;;-145.18;100.00;60484.78;5075200;28;20020;-70
2021/07/22 07:07:16;;;;;;;11.20;4.95;;;;;;;-145.18;100.00;60484.78;5087804;28;20080;-70
2021/07/22 07:09:42;;;;;;;11.77;4.60;;;;;;;-145.18;100.00;60484.78;5088380;28;20020;-70
2021/07/22 07:12:09;;;;;;;12.32;5.05;;;;;;;-145.18;100.00;60484.78;5087122;28;20027;-70
2021/07/22 07:14:34;;;;;;;10.18;4.90;;;;;;;-145.18;100.00;60484.78;5087730;28;20136;-70
2021/07/22 07:17:00;;;;;;;12.90;4.97;;;;;;;-145.18;100.00;60484.78;5085964;28;20098;-70
2021/07/22 07:19:25;;;;;;;10.35;4.55;;;;;;;-145.18;100.00;60484.78;5087619;28;20028;-70
2021/07/22 07:21:51;;;;;;;11.55;4.43;;;;;;;-145.18;100.00;60484.78;5084744;28;20088;-70
2021/07/22 07:24:16;;;;;;;10.60;4.43;;;;;;;-145.18;100.00;60484.78;5087865;28;20099;-70
2021/07/22 07:26:42;;;;;;;10.63;4.03;;;;;;;-145.18;100.00;60484.78;5083280;28;20028;-70
2021/07/22 07:29:08;;;;;;;10.90;4.35;;;;;;;-145.18;100.00;60484.78;5088268;28;20031;-69
2021/07/22 07:31:33;;;;;;;10.00;4.15;;;;;;;-145.18;100.00;60484.78;5082878;28;20016;-69
2021/07/22 07:33:59;;;;;;;9.32;4.40;;;;;;;-145.18;100.00;60484.78;5085227;28;20114;-69
2021/07/22 07:36:24;;;;;;;10.38;4.03;;;;;;;-145.18;100.00;60484.78;5082705;28;20485;-69
2021/07/22 07:38:50;;;;;;;13.73;4.40;;;;;;;-145.18;100.00;60484.78;5086767;28;20059;-70
2021/07/22 07:41:15;;;;;;;8.68;3.97;;;;;;;-145.18;100.00;60484.78;5082493;28;20035;-70
2021/07/22 07:43:41;;;;;;;9.35;3.90;;;;;;;-145.18;100.00;60484.78;5085243;28;20024;-70
2021/07/22 07:46:06;;;;;;;12.23;4.40;;;;;;;-145.18;100.00;60484.78;5082552;28;20499;-70
2021/07/22 07:48:32;;;;;;;10.32;4.63;;;;;;;-145.18;100.00;60484.78;5083813;28;20119;-70
2021/07/22 07:50:57;;;;;;;9.07;4.43;;;;;;;-145.18;100.00;60484.78;5082594;28;20069;-70
2021/07/22 07:53:23;;;;;;;9.48;4.00;;;;;;;-145.18;100.00;60484.78;5082389;28;20028;-70
2021/07/22 07:55:49;;;;;;;7.97;3.70;;;;;;;-145.18;100.00;60484.78;5082329;28;20024;-70
2021/07/22 07:58:14;;;;;;;9.20;3.95;;;;;;;-145.18;100.00;60484.78;5094849;28;20039;-69
2021/07/22 08:00:40;;;;;;;6.88;2.60;;;;;;;-145.18;100.00;60484.78;5084687;28;20028;-69
2021/07/22 08:03:15;;;;;;;7.63;3.33;;;;;;;-145.18;100.00;60484.78;5097800;28;20035;-70
2021/07/22 08:05:40;;;;;;;10.35;3.90;;;;;;;-145.18;100.00;60484.78;5072090;28;20370;-72
2021/07/22 08:08:06;;;;;;;8.75;3.67;;;;;;;-145.18;100.00;60484.78;5096918;28;20031;-72
2021/07/22 08:10:31;;;;;;;6.70;3.05;;;;;;;-145.18;100.00;60484.78;5086500;28;20042;-70
2021/07/22 08:12:57;;;;;;;7.30;3.28;;;;;;;-145.18;100.00;60484.78;5084790;28;20118;-70
2021/07/22 08:15:22;;;;;;;10.30;3.17;;;;;;;-145.18;100.00;60484.78;5075529;28;20051;-72
2021/07/22 08:17:48;;;;;;;7.45;3.47;;;;;;;-145.18;100.00;60484.78;5095731;28;20035;-72
2021/07/22 08:20:13;;;;;;;11.18;3.38;;;;;;;-145.18;100.00;60484.78;5088440;28;20023;-72
2021/07/22 08:22:39;;;;;;;7.25;3.45;;;;;;;-145.18;100.00;60484.78;5094810;28;20098;-73
2021/07/22 08:25:06;;;;;;;8.93;3.50;;;;;;;-145.18;100.00;60484.78;5088475;28;20028;-73
2021/07/22 08:27:32;;;;;;;9.80;3.65;;;;;;;-145.18;100.00;60484.78;5093827;28;20031;-73
2021/07/22 08:29:59;;;;;;;8.30;3.70;;;;;;;-145.18;100.00;60484.78;5087906;28;20044;-73
2021/07/22 08:32:25;;;;;;;7.82;3.40;;;;;;;-145.18;100.00;60484.78;5088437;28;20023;-73
2021/07/22 08:34:51;;;;;;;6.70;3.05;;;;;;;-145.18;100.00;60484.78;5086765;28;20373;-72
2021/07/22 08:37:17;;;;;;;7.88;3.40;;;;;;;-145.18;100.00;60484.78;5091679;28;20108;-72
2021/07/22 08:39:50;;;;;;;7.15;3.15;;;;;;;-145.18;100.00;60484.78;5088328;28;20099;-72
2021/07/22 08:42:16;;;;;;;7.30;3.20;;;;;;;-145.18;100.00;60484.78;5091059;28;20658;-72
2021/07/22 08:44:43;;;;;;;9.35;3.30;;;;;;;-145.18;100.00;60484.78;5087211;28;20031;-73
2021/07/22 08:47:10;;;;;;;10.73;3.40;;;;;;;-145.18;100.00;60484.78;5090101;28;20028;-73
2021/07/22 08:49:37;;;;;;;7.13;3.10;;;;;;;-145.18;100.00;60484.78;5088983;28;20099;-73
2021/07/22 08:52:08;;;;;;;7.32;3.22;;;;;;;-145.18;100.00;60484.78;5094170;28;20028;-73
2021/07/22 08:54:34;;;;;;;8.07;3.17;;;;;;;-145.18;100.00;60484.78;5088770;28;20017;-73
2021/07/22 08:57:01;;;;;;;6.85;2.85;;;;;;;-145.18;100.00;60484.78;5089636;28;20039;-73
2021/07/22 08:59:30;;;;;;;8.40;3.53;;;;;;;-145.18;100.00;60484.78;5085859;28;20028;-73
2021/07/22 09:01:56;;;;;;;7.70;3.35;;;;;;;-145.18;100.00;60484.78;5087491;28;20043;-73
2021/07/22 09:04:21;;;;;;;7.32;3.10;;;;;;;-145.18;100.00;60484.78;5075782;28;20084;-73
2021/07/22 09:06:47;;;;;;;6.40;3.33;;;;;;;-145.18;100.00;60484.78;5086454;28;20078;-73
2021/07/22 09:09:16;;;;;;;8.32;3.65;;;;;;;-145.18;100.00;60484.78;5072083;28;20020;-73
2021/07/22 09:11:59;;;;;;;6.93;3.20;;;;;;;-145.18;100.00;60484.78;5084485;28;20071;-73
2021/07/22 09:14:27;;;;;;;8.52;3.38;;;;;;;-145.18;100.00;60484.78;5086144;28;20050;-73
2021/07/22 09:16:53;;;;;;;6.68;2.83;;;;;;;-145.18;100.00;60484.78;5086936;28;20024;-73
2021/07/22 09:19:51;;;;;;;7.88;2.95;;;;;;;-145.18;100.00;60484.78;5085653;28;20483;-73
2021/07/22 09:22:39;;;;;;;7.05;3.42;;;;;;;-145.18;100.00;60484.78;5018755;28;20043;-73
2021/07/22 09:25:09;;;;;;;6.07;3.00;;;;;;;-145.18;100.00;60484.78;5084933;28;20028;-73
2021/07/22 09:27:40;;;;;;;6.95;3.10;;;;;;;-145.18;100.00;60484.78;5085525;28;20032;-73
2021/07/22 09:30:16;;;;;;;6.45;3.00;;;;;;;-145.18;100.00;60484.78;5084803;28;20027;-73
2021/07/22 09:32:44;;;;;;;6.40;3.13;;;;;;;-145.18;100.00;60484.78;5087402;28;20084;-73
2021/07/22 09:35:12;;;;;;;6.88;2.78;;;;;;;-145.18;100.00;60484.78;5084905;28;20153;-73
2021/07/22 09:37:47;;;;;;;7.10;2.67;;;;;;;-145.18;100.00;60484.78;5093261;28;20592;-73
2021/07/22 09:40:34;;;;;;;5.03;2.70;;;;;;;-145.18;100.00;60484.78;5086838;28;20405;-73
2021/07/22 09:43:00;;;;;;;8.25;3.13;;;;;;;-145.18;100.00;60484.78;5095059;28;20050;-73
2021/07/22 09:45:30;;;;;;;6.72;3.55;;;;;;;-145.18;100.00;60484.78;5084761;28;20427;-73
2021/07/22 09:48:06;;;;;;;7.07;3.35;;;;;;;-145.18;100.00;60484.78;5093941;28;20436;-73
2021/07/22 09:50:38;;;;;;;7.75;3.00;;;;;;;-145.18;100.00;60484.78;5084959;28;20720;-73
2021/07/22 09:53:14;;;;;;;7.50;3.22;;;;;;;-145.18;100.00;60484.78;5093595;28;20024;-73
2021/07/22 09:55:41;;;;;;;7.75;2.90;;;;;;;-145.18;100.00;60484.78;5084733;28;20024;-73
2021/07/22 09:58:09;;;;;;;8.32;3.35;;;;;;;-145.18;100.00;60484.78;5091974;28;20024;-73
2021/07/22 10:00:40;;;;;;;6.75;3.40;;;;;;;-145.18;100.00;60484.78;5084265;28;20024;-73
2021/07/22 10:03:08;;;;;;;6.10;2.88;;;;;;;-145.18;100.00;60484.78;5090261;28;20039;-73
2021/07/22 10:05:41;;;;;;;9.32;3.40;;;;;;;-145.18;100.00;60484.78;5084189;28;20474;-73
2021/07/22 10:08:07;;;;;;;6.38;3.25;;;;;;;-145.18;100.00;60484.78;5089315;28;20111;-73
2021/07/22 10:10:35;;;;;;;8.65;3.10;;;;;;;-145.18;100.00;60484.78;5084328;28;20688;-73
2021/07/22 10:13:02;;;;;;;7.10;3.38;;;;;;;-145.18;100.00;60484.78;5082187;28;20020;-73
2021/07/22 10:15:32;;;;;;;8.75;3.33;;;;;;;-145.18;100.00;60484.78;5083903;28;20062;-73
2021/07/22 10:17:59;;;;;;;5.60;2.90;;;;;;;-145.18;100.00;60484.78;5086855;28;20047;-71
2021/07/22 10:20:29;;;;;;;7.78;3.20;;;;;;;-145.18;100.00;60484.78;5083959;28;20054;-72
2021/07/22 10:22:56;;;;;;;5.65;2.88;;;;;;;-145.18;100.00;60484.78;5084664;28;20047;-71
2021/07/22 10:25:22;;;;;;;8.57;3.60;;;;;;;-145.18;100.00;60484.78;5083730;28;20107;-74
2021/07/22 10:27:47;;;;;;;7.50;3.22;;;;;;;-145.18;100.00;60484.78;5084580;28;20024;-74
2021/07/22 10:30:18;;;;;;;6.80;3.28;;;;;;;-145.18;100.00;60484.78;5083655;28;20457;-73
2021/07/22 10:33:05;;;;;;;5.72;3.08;;;;;;;-145.18;100.00;60484.78;5086259;28;20044;-73
2021/07/22 10:35:32;;;;;;;7.28;3.72;;;;;;;-145.18;100.00;60484.78;5082925;28;20039;-73
2021/07/22 10:38:17;;;;;;;7.05;3.80;;;;;;;-145.18;100.00;60484.78;5094573;28;20027;-73
2021/07/22 10:40:57;;;;;;;6.78;3.50;;;;;;;-145.18;100.00;60484.78;5071974;28;20397;-72
2021/07/22 10:43:55;;;;;;;7.70;3.05;;;;;;;-145.18;100.00;60484.78;5091188;28;20042;-71
2021/07/22 10:46:21;;;;;;;7.68;2.95;;;;;;;-145.18;100.00;60484.78;5029634;28;20107;-71
2021/07/22 10:48:48;;;;;;;5.53;3.00;;;;;;;-145.18;100.00;60484.78;5093258;28;20321;-72
2021/07/22 10:51:20;;;;;;;6.80;3.25;;;;;;;-145.18;100.00;60484.78;5083665;28;20816;-72
2021/07/22 10:53:48;;;;;;;7.72;3.38;;;;;;;-145.18;100.00;60484.78;5092554;28;20115;-71
2021/07/22 10:56:57;;;;;;;5.20;2.63;;;;;;;-145.18;100.00;60484.78;5083265;28;20090;-72
2021/07/22 10:59:53;;;;;;;7.10;3.10;;;;;;;-145.18;100.00;60484.78;5056165;28;20036;-72
2021/07/22 11:02:47;;;;;;;6.50;2.95;;;;;;;-145.18;100.00;60484.78;5088228;28;20031;-72
2021/07/22 11:06:11;;;;;;;6.45;3.08;;;;;;;-145.18;100.00;60484.78;5080628;28;20024;-71